Aérodrome :







RETROUVEZ-NOUS SUR...

 
LOGIN :

S'inscrire | Disclaimer

   EN    FR    IT 

 









Légende :    VFR   VFR Marginal   IFR   IFR Intensif   IFR Très Intensif
Visi : 
Plafond : 
>= 8 km
>= 3000ft
5 à 8 km
1000 à 3000 ft
1500m à 5 km
500 à 1000 ft
800 à 1500m
200 à 500 ft
< 800m
< 200 ft
Symboles :   Orages  Brouillard  Fortes neiges  Fortes précipitations  Vent > 20 kt






- Altitude de l'aérodrome : 9 ft
- Code IATA : SJU


TJSJ - Luis Munoz Marin Int.

DERNIER METAR :
  • 022256Z 08013KT 10SM FEW025 SCT060 SCT085 29/24 A3000 RMK AO2 SLP156 VCSH SE T02890244

METARs EXPIRÉS :
  • 022156Z 07016KT 9SM FEW033 SCT050 SCT085 29/24 A2999 RMK AO2 SLP153 HZ ALQDS T02940244
  • 022056Z 06017KT 9SM FEW036 SCT060 SCT085 31/24 A2998 RMK AO2 SLP150 HZ ALQDS T03060244 56008

TAF TJSJ
Valide du 02 à 18h jusqu'au 03 à 18h UTC


021720Z 0218/0318 07015G23KT P6SM VCSH SCT030 SCT050
FM022200 09013KT P6SM FEW035 SCT050
FM030600 10004KT P6SM FEW030
FM031200 09015G20KT P6SM FEW030
FIR TJZS / Amérique du Nord



MET'MAP, la Météo Aéronautique d'un coup d'oeil ! - Copyright ORBIFLY Décembre 2007 - Disclaimer

ORBIFLY MET'MAP TEAM :

Programmation & Développement : Alexandra Zaïnal
Sur une idée originale de : Baudouin d'Aumeries
Assistance à la programmation : Marc-Olivier Méhu
Soutien technique & logistique : Manuel Goepfert

Contact : metmap@orbifly.com




SOURCES & CREDITS :

   NOAA